createdAt,value
2023-01-12T00:04:39.804Z,98284.41
2023-01-12T00:09:42.993Z,98274.16
2023-01-12T00:14:47.100Z,98270.53
2023-01-12T00:19:51.354Z,98260.88
2023-01-12T00:24:55.822Z,98257.97
2023-01-12T00:29:59.926Z,98273.66
2023-01-12T00:35:02.689Z,98261.97
2023-01-12T00:40:07.782Z,98258.34
2023-01-12T00:45:24.882Z,98249.56
2023-01-12T00:50:27.913Z,98247.63
2023-01-12T00:55:30.782Z,98242.44
2023-01-12T01:00:34.920Z,98242.44
2023-01-12T01:05:37.828Z,98240.75
2023-01-12T01:10:40.621Z,98238.94
2023-01-12T01:15:44.868Z,98243.53
2023-01-12T01:20:48.280Z,98237.22
2023-01-12T01:25:51.410Z,98228.56
2023-01-12T01:31:04.384Z,98241.09
2023-01-12T01:36:07.327Z,98238.06
2023-01-12T01:41:18.303Z,98228.56
2023-01-12T01:46:30.641Z,98251.56
2023-01-12T01:51:33.505Z,98237.34
2023-01-12T01:56:37.340Z,98219.00
2023-01-12T02:01:41.637Z,98230.34
2023-01-12T02:06:44.935Z,98223.13
2023-01-12T02:12:05.705Z,98211.44
2023-01-12T02:17:28.376Z,98204.53
2023-01-12T02:23:19.150Z,98209.25
2023-01-12T02:28:50.872Z,98201.88
2023-01-12T02:34:06.358Z,98198.78
2023-01-12T02:39:14.144Z,98193.09
2023-01-12T02:44:25.036Z,98185.84
2023-01-12T02:49:35.672Z,98182.22
2023-01-12T02:54:41.223Z,98179.47
2023-01-12T02:59:46.625Z,98180.66
2023-01-12T03:04:51.164Z,98192.25
2023-01-12T03:09:59.572Z,98177.50
2023-01-12T03:15:06.755Z,98180.53
2023-01-12T03:20:14.395Z,98186.06
2023-01-12T03:25:19.187Z,98156.63
2023-01-12T03:30:27.395Z,98160.97
2023-01-12T03:35:36.372Z,98158.31
2023-01-12T03:40:43.587Z,98163.38
2023-01-12T03:45:49.130Z,98151.78
2023-01-12T03:50:56.854Z,98149.28
2023-01-12T03:56:05.483Z,98161.19
2023-01-12T04:01:08.476Z,98125.84
2023-01-12T04:06:12.655Z,98129.31
2023-01-12T04:11:32.933Z,98119.66
2023-01-12T04:16:35.750Z,98119.56
2023-01-12T04:21:57.110Z,98103.22
2023-01-12T04:26:59.826Z,98118.91
2023-01-12T04:32:02.665Z,98112.78
2023-01-12T04:37:06.771Z,98125.47
2023-01-12T04:42:29.907Z,98102.72
2023-01-12T04:47:34.147Z,98091.38
2023-01-12T04:52:38.841Z,98080.31
2023-01-12T04:57:41.605Z,98076.44
2023-01-12T05:02:44.376Z,98060.16
2023-01-12T05:08:02.514Z,98065.34
2023-01-12T05:13:05.515Z,98044.09
2023-01-12T05:18:08.300Z,98055.44
2023-01-12T05:23:12.436Z,98042.16
2023-01-12T05:28:15.660Z,98037.66
2023-01-12T05:33:19.427Z,98031.53
2023-01-12T05:38:25.275Z,98020.75
2023-01-12T05:43:45.903Z,98005.44
2023-01-12T05:48:49.378Z,98012.53
2023-01-12T05:53:53.857Z,97992.41
2023-01-12T05:58:58.353Z,97995.31
2023-01-12T06:04:02.427Z,97984.44
2023-01-12T06:09:07.608Z,97974.59
2023-01-12T06:14:11.591Z,97982.22
2023-01-12T06:19:14.675Z,97968.97
2023-01-12T06:24:19.150Z,97960.53
2023-01-12T06:29:22.347Z,97962.38
2023-01-12T06:34:25.120Z,97950.91
2023-01-12T06:39:29.326Z,97928.31
2023-01-12T06:44:32.597Z,97951.75
2023-01-12T06:49:36.606Z,97941.25
2023-01-12T06:54:41.624Z,97936.47
2023-01-12T06:59:44.562Z,97949.03
2023-01-12T07:04:47.397Z,97944.69
2023-01-12T07:09:51.704Z,97938.06
2023-01-12T07:14:56.234Z,97945.06
2023-01-12T07:19:59.263Z,97947.16
2023-01-12T07:25:03.440Z,97931.91
2023-01-12T07:30:07.107Z,97945.53
2023-01-12T07:35:12.299Z,97943.38
2023-01-12T07:40:17.254Z,97933.06
2023-01-12T07:45:20.039Z,97919.22
2023-01-12T07:50:23.692Z,97923.91
2023-01-12T07:55:28.131Z,97923.44
2023-01-12T08:00:34.432Z,97912.84
2023-01-12T08:05:39.050Z,97920.09
2023-01-12T08:10:45.651Z,97919.13
2023-01-12T08:15:51.699Z,97923.59
2023-01-12T08:20:57.671Z,97942.25
2023-01-12T08:26:05.500Z,97945.63
2023-01-12T08:31:13.896Z,97930.59
2023-01-12T08:36:20.072Z,97919.97
2023-01-12T08:41:37.671Z,97938.41
2023-01-12T08:46:47.014Z,97924.06
2023-01-12T08:51:49.955Z,97937.06
2023-01-12T08:56:54.833Z,97936.81
2023-01-12T09:01:57.757Z,97939.09
2023-01-12T09:07:01.044Z,97934.38
2023-01-12T09:12:05.711Z,97931.59
2023-01-12T09:17:08.584Z,97955.06
2023-01-12T09:22:12.165Z,97946.88
2023-01-12T09:27:16.710Z,97938.66
2023-01-12T09:32:26.053Z,97948.91
2023-01-12T09:37:32.786Z,97944.31
2023-01-12T09:42:55.713Z,97951.75
2023-01-12T09:48:02.735Z,97950.41
2023-01-12T09:53:18.041Z,97941.13
2023-01-12T09:58:39.837Z,97953.41
2023-01-12T10:03:44.813Z,97954.25
2023-01-12T10:08:50.836Z,97958.22
2023-01-12T10:14:27.958Z,97948.16
2023-01-12T10:19:41.850Z,97947.19
2023-01-12T10:24:46.235Z,97946.69
2023-01-12T10:29:51.319Z,97937.75
2023-01-12T10:34:55.865Z,97942.66
2023-01-12T10:40:54.423Z,97934.34
2023-01-12T10:46:17.858Z,97941.31
2023-01-12T10:51:28.163Z,97931.16
2023-01-12T10:56:37.972Z,97935.22
2023-01-12T11:01:51.880Z,97924.50
2023-01-12T11:07:05.079Z,97922.03
2023-01-12T11:12:21.827Z,97932.66
2023-01-12T11:17:44.679Z,97926.38
2023-01-12T11:22:52.549Z,97921.94
2023-01-12T11:28:01.743Z,97919.00
2023-01-12T11:33:13.617Z,97939.28
2023-01-12T11:38:22.018Z,97929.47
2023-01-12T11:43:55.996Z,97923.91
2023-01-12T11:49:06.971Z,97914.69
2023-01-12T11:54:17.577Z,97914.59
2023-01-12T11:59:27.925Z,97888.13
2023-01-12T12:04:47.239Z,97902.97
2023-01-12T12:10:16.408Z,97898.25
2023-01-12T12:15:29.726Z,97899.94
2023-01-12T12:20:40.632Z,97902.44
2023-01-12T12:25:53.779Z,97882.06
2023-01-12T12:31:28.705Z,97898.69
2023-01-12T12:36:36.206Z,97895.63
2023-01-12T12:42:11.567Z,97896.59
2023-01-12T12:47:42.134Z,97890.47
2023-01-12T12:52:47.421Z,97889.34
2023-01-12T12:58:03.004Z,97884.28
2023-01-12T13:03:05.967Z,97891.72
2023-01-12T13:08:24.533Z,97886.25
2023-01-12T13:13:32.115Z,97882.06
2023-01-12T13:19:04.729Z,97889.03
2023-01-12T13:24:27.808Z,97883.72
2023-01-12T13:29:49.569Z,97886.06
2023-01-12T13:34:53.755Z,97880.75
2023-01-12T13:40:05.105Z,97888.47
2023-01-12T13:45:11.542Z,97878.97
2023-01-12T13:50:20.933Z,97881.47
2023-01-12T13:55:29.539Z,97872.66
2023-01-12T14:00:34.427Z,97877.00
2023-01-12T14:06:03.886Z,97877.44
2023-01-12T14:11:21.121Z,97887.38
2023-01-12T14:16:41.313Z,97871.97
2023-01-12T14:21:57.786Z,97868.63
2023-01-12T14:27:01.211Z,97871.72
2023-01-12T14:32:04.044Z,97876.19
2023-01-12T14:37:34.216Z,97868.22
2023-01-12T14:43:03.818Z,97869.25
2023-01-12T14:48:21.024Z,97866.22
2023-01-12T14:53:33.820Z,97862.72
2023-01-12T14:58:37.512Z,97862.34
2023-01-12T15:03:48.357Z,97867.09
2023-01-12T15:08:57.978Z,97858.56
2023-01-12T15:14:01.867Z,97858.88
2023-01-12T15:19:22.800Z,97855.09
2023-01-12T15:24:46.839Z,97840.56
2023-01-12T15:29:49.690Z,97849.78
2023-01-12T15:34:52.991Z,97848.69
2023-01-12T15:39:59.804Z,97843.19
2023-01-12T15:45:02.666Z,97842.78
2023-01-12T15:50:06.257Z,97838.72
2023-01-12T15:55:17.673Z,97841.25
2023-01-12T16:00:22.821Z,97841.25
2023-01-12T16:05:27.069Z,97846.03
2023-01-12T16:10:31.369Z,97838.59
2023-01-12T16:15:34.123Z,97830.75
2023-01-12T16:20:37.498Z,97836.09
2023-01-12T16:25:41.862Z,97835.22
2023-01-12T16:30:48.170Z,97819.72
2023-01-12T16:35:55.720Z,97822.63
2023-01-12T16:41:00.290Z,97813.69
2023-01-12T16:46:03.744Z,97822.50
2023-01-12T16:51:11.663Z,97840.13
2023-01-12T16:56:17.223Z,97814.38
2023-01-12T17:01:22.416Z,97806.13
2023-01-12T17:06:27.232Z,97809.88
2023-01-12T17:11:32.672Z,97806.81
2023-01-12T17:16:35.443Z,97818.72
2023-01-12T17:21:38.451Z,97823.19
2023-01-12T17:26:43.586Z,97817.88
2023-01-12T17:31:46.374Z,97822.22
2023-01-12T17:36:49.474Z,97807.25
2023-01-12T17:42:11.666Z,97809.19
2023-01-12T17:47:14.411Z,97819.56
2023-01-12T17:52:17.548Z,97826.56
2023-01-12T17:57:22.069Z,97824.31
2023-01-12T18:02:24.845Z,97827.13
2023-01-12T18:07:28.794Z,97825.44
2023-01-12T18:12:33.622Z,97814.22
2023-01-12T18:17:36.644Z,97821.22
2023-01-12T18:22:39.940Z,97811.97
2023-01-12T18:27:45.550Z,97804.84
2023-01-12T18:32:49.012Z,97806.66
2023-01-12T18:37:51.812Z,97810.88
2023-01-12T18:42:58.211Z,97799.66
2023-01-12T18:48:18.538Z,97792.66
2023-01-12T18:53:25.541Z,97804.00
2023-01-12T18:58:31.710Z,97807.63
2023-01-12T19:03:35.248Z,97799.81
2023-01-12T19:08:55.628Z,97792.81
2023-01-12T19:14:17.246Z,97789.31
2023-01-12T19:19:23.449Z,97787.09
2023-01-12T19:24:44.120Z,97782.88
2023-01-12T19:29:48.468Z,97784.84
2023-01-12T19:34:56.333Z,97788.34
2023-01-12T19:40:02.944Z,97790.16
2023-01-12T19:45:10.003Z,97768.88
2023-01-12T19:50:15.586Z,97765.50
2023-01-12T19:55:18.661Z,97771.25
2023-01-12T20:00:23.140Z,97765.50
2023-01-12T20:05:25.939Z,97764.09
2023-01-12T20:10:28.758Z,97774.19
2023-01-12T20:15:33.160Z,97760.19
2023-01-12T20:20:36.033Z,97760.19
2023-01-12T20:25:41.027Z,97762.13
2023-01-12T20:30:45.207Z,97753.34
2023-01-12T20:35:50.047Z,97748.72
2023-01-12T20:40:53.022Z,97739.63
2023-01-12T20:45:57.106Z,97737.69
2023-01-12T20:51:01.160Z,97720.75
2023-01-12T20:56:05.112Z,97722.97
2023-01-12T21:01:13.946Z,97715.69
2023-01-12T21:06:18.238Z,97710.38
2023-01-12T21:11:21.939Z,97707.28
2023-01-12T21:16:26.060Z,97702.56
2023-01-12T21:21:28.830Z,97699.88
2023-01-12T21:26:31.772Z,97689.94
2023-01-12T21:31:36.661Z,97695.69
2023-01-12T21:36:39.940Z,97692.72
2023-01-12T21:42:00.157Z,97688.94
2023-01-12T21:47:04.516Z,97678.72
2023-01-12T21:52:08.204Z,97670.31
2023-01-12T21:57:11.750Z,97673.94
2023-01-12T22:02:16.084Z,97675.63
2023-01-12T22:07:19.053Z,97648.72
2023-01-12T22:12:22.269Z,97660.63
2023-01-12T22:17:26.423Z,97660.06
2023-01-12T22:22:29.537Z,97665.94
2023-01-12T22:27:32.429Z,97658.78
2023-01-12T22:32:36.640Z,97657.97
2023-01-12T22:37:40.947Z,97664.94
2023-01-12T22:43:01.617Z,97655.00
2023-01-12T22:48:06.480Z,97652.44
2023-01-12T22:53:09.735Z,97650.09
2023-01-12T22:58:12.484Z,97647.41
2023-01-12T23:03:16.850Z,97658.63
2023-01-12T23:08:19.684Z,97654.41
2023-01-12T23:13:22.384Z,97652.63
2023-01-12T23:18:28.631Z,97657.09
2023-01-12T23:23:31.962Z,97635.78
2023-01-12T23:28:38.857Z,97649.19
2023-01-12T23:33:43.564Z,97628.06
2023-01-12T23:38:46.633Z,97639.53
2023-01-12T23:43:51.908Z,97626.22
2023-01-12T23:48:57.927Z,97634.22
2023-01-12T23:54:02.615Z,97632.00
2023-01-12T23:59:05.380Z,97619.09
